Hartford, CT

4:52 AM EDT on July 05, 2015 (GMT -0400)
Bradley International | | Change Station
CLOSE
Current Station
Airport
Location: Windsor Locks,
Elevation: 180 ft
Nearby Weather Stations
Active Advisory: Special Statement

Elev 180 ft 41.94 °N, 72.68 °W | Updated 1 hour ago

Clear
Clear
57 °F
Feels Like 57 °F
N
5
Wind Variable Wind from South

Today
High -- | Low -- °F
--% Chance of Precip.
Yesterday
High -- | Low -- °F
Precip. -- in
5:21 AM 8:29 PM
Waning Gibbous, 86% visible
Pressure 30.02 in
Visibility 3.0 miles
Clouds Clear
Dew Point 56 °F
Humidity 96%
Rainfall 0.00 in
Snow Depth Not available.
UV 0 out of 12
Pollen 1.00 out of 12
Air Quality Not available.
Flu Activity Not available.
METAR KBDL 050751Z 18004KT 3SM BR CLR 14/13 A3002 RMK AO2 TWR VIS 4 SLP165 T01390133

More Conditions Fewer Conditions

Pressure 30.02 in
Visibility 3.0 miles
Clouds Clear
Dew Point 56 °F
Humidity 96%
Rainfall 0.00 in
Snow Depth Not available.
UV 0 out of 12
Pollen 1.00 out of 12
Air Quality Not available.
Flu Activity Not available.
METAR KBDL 050751Z 18004KT 3SM BR CLR 14/13 A3002 RMK AO2 TWR VIS 4 SLP165 T01390133

More Conditions Fewer Conditions

10-Day Weather Forecast

×

Almanac

Astronomy

Jul. 05, 2015 Rise Set
Actual Time
Civil Twilight
Nautical Twilight
Astronomical Twilight
Moon
Length of Visible Light
Length of Day
Tomorrow will be .
, % of the Moon is Illuminated

Today's Extremes

State Highs State Lows

Community

WunderPhotos

Upload Photos

1,835,217 photos uploaded!

WunderBlogs® & News

Nearby

Air Quality

  Air Quality AQ Index Pollutant
Not available.

Snow Depth

Station Depth Elevation

Earthquake Activity

City Distance Mag. Time & Date
Minimum magnitude displayed is 2.5.

Coastal Water Temperatures

Place Temperature

Stations

Nearby Weather Stations

Station Location Temp. Windchill Dew Point Humidity Wind Precip. Elev Updated Type
                   
Special Statement
Statement as of 4:29 AM EDT on July 05, 2015

... Patchy dense fog this morning...

Patchy dense fog across the area may lead to hazardous driving
conditions. Visibilities may quickly drop to a half mile or less
at times.

Motorists are urged to use caution... slow down and allow extra
travel time.



429 am EDT sun Jul 5 2015

... Patchy dense fog this morning...

Patchy dense fog across the area may lead to hazardous driving
conditions. Visibilities may quickly drop to a half mile or less
at times.

Motorists are urged to use caution... slow down and allow extra
travel time.


429 am EDT sun Jul 5 2015

... Patchy dense fog this morning...

Patchy dense fog across the area may lead to hazardous driving
conditions. Visibilities may quickly drop to a half mile or less
at times.

Motorists are urged to use caution... slow down and allow extra
travel time.